sensor_id;sensor_type;location;lat;lon;timestamp;P1;durP1;ratioP1;P2;durP2;ratioP2
18425;SDS011;9340;48.756;9.226;2023-04-03T00:02:00;3.90;;;3.50;;
18425;SDS011;9340;48.756;9.226;2023-04-03T00:04:26;3.67;;;3.27;;
18425;SDS011;9340;48.756;9.226;2023-04-03T00:06:53;3.17;;;2.80;;
18425;SDS011;9340;48.756;9.226;2023-04-03T00:09:20;3.30;;;3.00;;
18425;SDS011;9340;48.756;9.226;2023-04-03T00:11:46;4.83;;;3.30;;
18425;SDS011;9340;48.756;9.226;2023-04-03T00:14:14;3.63;;;2.77;;
18425;SDS011;9340;48.756;9.226;2023-04-03T00:16:41;3.40;;;3.10;;
18425;SDS011;9340;48.756;9.226;2023-04-03T00:19:08;2.97;;;2.77;;
18425;SDS011;9340;48.756;9.226;2023-04-03T00:21:36;2.97;;;2.67;;
18425;SDS011;9340;48.756;9.226;2023-04-03T00:24:03;3.30;;;2.67;;
18425;SDS011;9340;48.756;9.226;2023-04-03T00:26:30;3.40;;;3.10;;
18425;SDS011;9340;48.756;9.226;2023-04-03T00:28:57;3.37;;;3.07;;
18425;SDS011;9340;48.756;9.226;2023-04-03T00:31:25;3.67;;;3.37;;
18425;SDS011;9340;48.756;9.226;2023-04-03T00:33:51;3.40;;;3.00;;
18425;SDS011;9340;48.756;9.226;2023-04-03T00:36:18;3.00;;;2.70;;
18425;SDS011;9340;48.756;9.226;2023-04-03T00:38:45;3.30;;;2.97;;
18425;SDS011;9340;48.756;9.226;2023-04-03T00:41:11;2.93;;;2.73;;
18425;SDS011;9340;48.756;9.226;2023-04-03T00:43:38;3.60;;;3.00;;
18425;SDS011;9340;48.756;9.226;2023-04-03T00:46:05;3.90;;;2.67;;
18425;SDS011;9340;48.756;9.226;2023-04-03T00:48:34;3.40;;;2.83;;
18425;SDS011;9340;48.756;9.226;2023-04-03T00:51:04;3.33;;;3.03;;
18425;SDS011;9340;48.756;9.226;2023-04-03T00:53:35;3.60;;;3.10;;
18425;SDS011;9340;48.756;9.226;2023-04-03T00:56:06;3.20;;;2.53;;
18425;SDS011;9340;48.756;9.226;2023-04-03T00:58:37;3.70;;;3.07;;
18425;SDS011;9340;48.756;9.226;2023-04-03T01:01:07;3.80;;;2.83;;
18425;SDS011;9340;48.756;9.226;2023-04-03T01:03:37;3.47;;;2.93;;
18425;SDS011;9340;48.756;9.226;2023-04-03T01:06:04;5.00;;;3.10;;
18425;SDS011;9340;48.756;9.226;2023-04-03T01:08:31;3.33;;;3.00;;
18425;SDS011;9340;48.756;9.226;2023-04-03T01:10:58;4.13;;;3.43;;
18425;SDS011;9340;48.756;9.226;2023-04-03T01:13:26;4.37;;;3.03;;
18425;SDS011;9340;48.756;9.226;2023-04-03T01:15:55;3.30;;;2.70;;
18425;SDS011;9340;48.756;9.226;2023-04-03T01:18:22;3.07;;;2.77;;
18425;SDS011;9340;48.756;9.226;2023-04-03T01:23:55;3.57;;;2.70;;
18425;SDS011;9340;48.756;9.226;2023-04-03T01:26:30;3.23;;;2.93;;
18425;SDS011;9340;48.756;9.226;2023-04-03T01:28:58;3.43;;;3.13;;
18425;SDS011;9340;48.756;9.226;2023-04-03T01:31:26;3.60;;;3.30;;
18425;SDS011;9340;48.756;9.226;2023-04-03T01:33:58;2.67;;;2.47;;
18425;SDS011;9340;48.756;9.226;2023-04-03T01:36:26;2.73;;;2.53;;
18425;SDS011;9340;48.756;9.226;2023-04-03T01:38:54;3.10;;;2.80;;
18425;SDS011;9340;48.756;9.226;2023-04-03T01:41:23;3.13;;;2.73;;
18425;SDS011;9340;48.756;9.226;2023-04-03T01:43:50;3.10;;;2.70;;
18425;SDS011;9340;48.756;9.226;2023-04-03T01:46:17;3.47;;;3.17;;
18425;SDS011;9340;48.756;9.226;2023-04-03T01:48:45;3.07;;;2.83;;
18425;SDS011;9340;48.756;9.226;2023-04-03T01:51:14;3.90;;;2.77;;
18425;SDS011;9340;48.756;9.226;2023-04-03T01:53:41;4.87;;;2.97;;
18425;SDS011;9340;48.756;9.226;2023-04-03T01:56:08;3.47;;;3.17;;
18425;SDS011;9340;48.756;9.226;2023-04-03T01:58:35;3.73;;;3.33;;
18425;SDS011;9340;48.756;9.226;2023-04-03T02:01:02;4.63;;;3.37;;
18425;SDS011;9340;48.756;9.226;2023-04-03T02:03:28;3.40;;;3.10;;
18425;SDS011;9340;48.756;9.226;2023-04-03T02:05:55;3.37;;;3.07;;
18425;SDS011;9340;48.756;9.226;2023-04-03T02:08:23;3.20;;;2.90;;
18425;SDS011;9340;48.756;9.226;2023-04-03T02:10:50;4.13;;;3.17;;
18425;SDS011;9340;48.756;9.226;2023-04-03T02:13:17;3.23;;;2.97;;
18425;SDS011;9340;48.756;9.226;2023-04-03T02:15:44;3.10;;;2.80;;
18425;SDS011;9340;48.756;9.226;2023-04-03T02:18:11;3.83;;;3.03;;
18425;SDS011;9340;48.756;9.226;2023-04-03T02:20:38;3.40;;;3.10;;
18425;SDS011;9340;48.756;9.226;2023-04-03T02:23:05;3.13;;;2.90;;
18425;SDS011;9340;48.756;9.226;2023-04-03T02:25:33;3.37;;;3.07;;
18425;SDS011;9340;48.756;9.226;2023-04-03T02:28:00;3.50;;;3.10;;
18425;SDS011;9340;48.756;9.226;2023-04-03T02:30:27;3.70;;;3.03;;
18425;SDS011;9340;48.756;9.226;2023-04-03T02:32:53;4.10;;;3.07;;
18425;SDS011;9340;48.756;9.226;2023-04-03T02:35:20;3.43;;;3.03;;
18425;SDS011;9340;48.756;9.226;2023-04-03T02:37:47;3.03;;;2.70;;
18425;SDS011;9340;48.756;9.226;2023-04-03T02:40:14;3.80;;;3.13;;
18425;SDS011;9340;48.756;9.226;2023-04-03T02:42:42;3.30;;;3.00;;
18425;SDS011;9340;48.756;9.226;2023-04-03T02:45:09;3.53;;;3.13;;
18425;SDS011;9340;48.756;9.226;2023-04-03T02:47:36;4.40;;;2.77;;
18425;SDS011;9340;48.756;9.226;2023-04-03T02:50:02;3.40;;;3.10;;
18425;SDS011;9340;48.756;9.226;2023-04-03T02:52:30;3.50;;;3.13;;
18425;SDS011;9340;48.756;9.226;2023-04-03T02:54:56;3.60;;;2.90;;
18425;SDS011;9340;48.756;9.226;2023-04-03T02:57:23;3.93;;;3.50;;
18425;SDS011;9340;48.756;9.226;2023-04-03T02:59:51;3.00;;;2.70;;
18425;SDS011;9340;48.756;9.226;2023-04-03T03:02:18;3.30;;;3.00;;
18425;SDS011;9340;48.756;9.226;2023-04-03T03:04:44;5.87;;;3.20;;
18425;SDS011;9340;48.756;9.226;2023-04-03T03:07:11;3.40;;;2.90;;
18425;SDS011;9340;48.756;9.226;2023-04-03T03:09:38;3.23;;;2.97;;
18425;SDS011;9340;48.756;9.226;2023-04-03T03:12:05;3.83;;;2.80;;
18425;SDS011;9340;48.756;9.226;2023-04-03T03:14:31;3.67;;;3.17;;
18425;SDS011;9340;48.756;9.226;2023-04-03T03:16:59;4.90;;;2.90;;
18425;SDS011;9340;48.756;9.226;2023-04-03T03:19:26;4.03;;;3.37;;
18425;SDS011;9340;48.756;9.226;2023-04-03T03:21:53;3.63;;;2.77;;
18425;SDS011;9340;48.756;9.226;2023-04-03T03:24:20;2.80;;;2.60;;
18425;SDS011;9340;48.756;9.226;2023-04-03T03:26:46;4.73;;;3.23;;
18425;SDS011;9340;48.756;9.226;2023-04-03T03:29:13;3.30;;;3.00;;
18425;SDS011;9340;48.756;9.226;2023-04-03T03:31:39;3.20;;;2.90;;
18425;SDS011;9340;48.756;9.226;2023-04-03T03:34:07;2.80;;;2.60;;
18425;SDS011;9340;48.756;9.226;2023-04-03T03:36:34;4.33;;;3.17;;
18425;SDS011;9340;48.756;9.226;2023-04-03T03:39:01;3.00;;;2.80;;
18425;SDS011;9340;48.756;9.226;2023-04-03T03:41:27;3.83;;;2.80;;
18425;SDS011;9340;48.756;9.226;2023-04-03T03:43:54;2.73;;;2.37;;
18425;SDS011;9340;48.756;9.226;2023-04-03T03:46:21;2.87;;;2.67;;
18425;SDS011;9340;48.756;9.226;2023-04-03T03:48:47;2.80;;;2.60;;
18425;SDS011;9340;48.756;9.226;2023-04-03T03:51:15;3.90;;;2.80;;
18425;SDS011;9340;48.756;9.226;2023-04-03T03:53:42;3.83;;;2.83;;
18425;SDS011;9340;48.756;9.226;2023-04-03T03:56:08;3.20;;;2.90;;
18425;SDS011;9340;48.756;9.226;2023-04-03T03:58:35;4.37;;;2.70;;
18425;SDS011;9340;48.756;9.226;2023-04-03T04:01:02;3.20;;;2.43;;
18425;SDS011;9340;48.756;9.226;2023-04-03T04:03:30;2.53;;;2.10;;
18425;SDS011;9340;48.756;9.226;2023-04-03T04:05:57;3.27;;;2.97;;
18425;SDS011;9340;48.756;9.226;2023-04-03T04:08:25;2.60;;;2.40;;
18425;SDS011;9340;48.756;9.226;2023-04-03T04:10:51;2.93;;;2.57;;
18425;SDS011;9340;48.756;9.226;2023-04-03T04:13:18;3.20;;;2.43;;
18425;SDS011;9340;48.756;9.226;2023-04-03T04:15:45;3.83;;;2.80;;
18425;SDS011;9340;48.756;9.226;2023-04-03T04:18:12;3.37;;;2.20;;
18425;SDS011;9340;48.756;9.226;2023-04-03T04:20:38;3.37;;;2.70;;
18425;SDS011;9340;48.756;9.226;2023-04-03T04:23:05;3.00;;;2.70;;
18425;SDS011;9340;48.756;9.226;2023-04-03T04:25:33;4.03;;;2.30;;
18425;SDS011;9340;48.756;9.226;2023-04-03T04:28:00;2.87;;;2.67;;
18425;SDS011;9340;48.756;9.226;2023-04-03T04:30:26;3.20;;;2.50;;
18425;SDS011;9340;48.756;9.226;2023-04-03T04:32:53;3.47;;;2.67;;
18425;SDS011;9340;48.756;9.226;2023-04-03T04:35:20;2.63;;;2.43;;
18425;SDS011;9340;48.756;9.226;2023-04-03T04:37:46;3.37;;;2.80;;
18425;SDS011;9340;48.756;9.226;2023-04-03T04:40:13;2.90;;;2.40;;
18425;SDS011;9340;48.756;9.226;2023-04-03T04:42:41;2.90;;;2.67;;
18425;SDS011;9340;48.756;9.226;2023-04-03T04:45:08;3.43;;;3.07;;
18425;SDS011;9340;48.756;9.226;2023-04-03T04:47:35;3.27;;;2.77;;
18425;SDS011;9340;48.756;9.226;2023-04-03T04:50:02;3.20;;;2.87;;
18425;SDS011;9340;48.756;9.226;2023-04-03T04:52:29;3.23;;;2.93;;
18425;SDS011;9340;48.756;9.226;2023-04-03T04:54:56;3.20;;;2.90;;
18425;SDS011;9340;48.756;9.226;2023-04-03T04:57:23;3.27;;;2.97;;
18425;SDS011;9340;48.756;9.226;2023-04-03T04:59:51;3.20;;;2.80;;
18425;SDS011;9340;48.756;9.226;2023-04-03T05:02:18;3.20;;;2.90;;
18425;SDS011;9340;48.756;9.226;2023-04-03T05:04:44;2.80;;;2.60;;
18425;SDS011;9340;48.756;9.226;2023-04-03T05:07:11;5.60;;;2.60;;
18425;SDS011;9340;48.756;9.226;2023-04-03T05:09:38;3.67;;;2.57;;
18425;SDS011;9340;48.756;9.226;2023-04-03T05:12:07;4.57;;;2.73;;
18425;SDS011;9340;48.756;9.226;2023-04-03T05:14:33;3.27;;;2.30;;
18425;SDS011;9340;48.756;9.226;2023-04-03T05:17:01;2.87;;;2.40;;
18425;SDS011;9340;48.756;9.226;2023-04-03T05:19:28;3.67;;;2.70;;
18425;SDS011;9340;48.756;9.226;2023-04-03T05:21:55;2.83;;;2.10;;
18425;SDS011;9340;48.756;9.226;2023-04-03T05:24:21;2.50;;;2.30;;
18425;SDS011;9340;48.756;9.226;2023-04-03T05:26:48;2.97;;;2.37;;
18425;SDS011;9340;48.756;9.226;2023-04-03T05:29:15;3.10;;;2.50;;
18425;SDS011;9340;48.756;9.226;2023-04-03T05:31:41;2.97;;;2.30;;
18425;SDS011;9340;48.756;9.226;2023-04-03T05:34:11;2.63;;;2.40;;
18425;SDS011;9340;48.756;9.226;2023-04-03T05:36:37;3.10;;;2.37;;
18425;SDS011;9340;48.756;9.226;2023-04-03T05:39:04;2.90;;;2.50;;
18425;SDS011;9340;48.756;9.226;2023-04-03T05:41:31;3.00;;;2.47;;
18425;SDS011;9340;48.756;9.226;2023-04-03T05:43:57;3.37;;;2.40;;
18425;SDS011;9340;48.756;9.226;2023-04-03T05:46:24;3.30;;;2.73;;
18425;SDS011;9340;48.756;9.226;2023-04-03T05:48:51;4.23;;;2.87;;
18425;SDS011;9340;48.756;9.226;2023-04-03T05:51:19;2.70;;;2.50;;
18425;SDS011;9340;48.756;9.226;2023-04-03T05:53:50;3.40;;;2.30;;
18425;SDS011;9340;48.756;9.226;2023-04-03T05:56:21;2.77;;;2.53;;
18425;SDS011;9340;48.756;9.226;2023-04-03T05:58:47;3.30;;;3.00;;
18425;SDS011;9340;48.756;9.226;2023-04-03T06:01:14;3.50;;;2.80;;
18425;SDS011;9340;48.756;9.226;2023-04-03T06:03:41;3.57;;;2.83;;
18425;SDS011;9340;48.756;9.226;2023-04-03T06:06:07;4.27;;;2.53;;
18425;SDS011;9340;48.756;9.226;2023-04-03T06:08:39;4.17;;;3.27;;
18425;SDS011;9340;48.756;9.226;2023-04-03T06:11:05;3.43;;;2.97;;
18425;SDS011;9340;48.756;9.226;2023-04-03T06:13:33;3.20;;;2.60;;
18425;SDS011;9340;48.756;9.226;2023-04-03T06:16:00;3.50;;;3.07;;
18425;SDS011;9340;48.756;9.226;2023-04-03T06:18:28;3.07;;;2.60;;
18425;SDS011;9340;48.756;9.226;2023-04-03T06:20:55;3.07;;;2.37;;
18425;SDS011;9340;48.756;9.226;2023-04-03T06:23:23;2.57;;;2.30;;
18425;SDS011;9340;48.756;9.226;2023-04-03T06:25:51;3.43;;;2.50;;
18425;SDS011;9340;48.756;9.226;2023-04-03T06:28:18;2.77;;;2.47;;
18425;SDS011;9340;48.756;9.226;2023-04-03T06:30:45;2.60;;;2.40;;
18425;SDS011;9340;48.756;9.226;2023-04-03T06:33:11;3.20;;;2.40;;
18425;SDS011;9340;48.756;9.226;2023-04-03T06:35:38;2.93;;;2.70;;
18425;SDS011;9340;48.756;9.226;2023-04-03T06:38:05;3.00;;;2.60;;
18425;SDS011;9340;48.756;9.226;2023-04-03T06:40:34;4.00;;;2.90;;
18425;SDS011;9340;48.756;9.226;2023-04-03T06:43:03;4.07;;;2.53;;
18425;SDS011;9340;48.756;9.226;2023-04-03T06:45:30;2.40;;;2.20;;
18425;SDS011;9340;48.756;9.226;2023-04-03T06:47:56;3.20;;;2.03;;
18425;SDS011;9340;48.756;9.226;2023-04-03T06:50:23;2.90;;;2.60;;
18425;SDS011;9340;48.756;9.226;2023-04-03T06:52:50;3.43;;;2.77;;
18425;SDS011;9340;48.756;9.226;2023-04-03T06:55:16;2.50;;;2.30;;
18425;SDS011;9340;48.756;9.226;2023-04-03T06:57:43;4.17;;;2.70;;
18425;SDS011;9340;48.756;9.226;2023-04-03T07:00:12;2.43;;;2.23;;
18425;SDS011;9340;48.756;9.226;2023-04-03T07:02:41;3.03;;;2.40;;
18425;SDS011;9340;48.756;9.226;2023-04-03T07:05:07;3.20;;;2.50;;
18425;SDS011;9340;48.756;9.226;2023-04-03T07:07:35;3.03;;;2.73;;
18425;SDS011;9340;48.756;9.226;2023-04-03T07:10:03;2.60;;;2.40;;
18425;SDS011;9340;48.756;9.226;2023-04-03T07:12:30;2.67;;;2.30;;
18425;SDS011;9340;48.756;9.226;2023-04-03T07:14:57;2.27;;;2.03;;
18425;SDS011;9340;48.756;9.226;2023-04-03T07:17:25;2.40;;;2.17;;
18425;SDS011;9340;48.756;9.226;2023-04-03T07:19:52;3.47;;;2.90;;
18425;SDS011;9340;48.756;9.226;2023-04-03T07:22:18;3.43;;;2.30;;
18425;SDS011;9340;48.756;9.226;2023-04-03T07:24:45;2.57;;;2.37;;
18425;SDS011;9340;48.756;9.226;2023-04-03T07:27:12;2.77;;;2.47;;
18425;SDS011;9340;48.756;9.226;2023-04-03T07:29:39;3.47;;;2.00;;
18425;SDS011;9340;48.756;9.226;2023-04-03T07:32:06;3.83;;;2.47;;
18425;SDS011;9340;48.756;9.226;2023-04-03T07:34:34;3.53;;;2.50;;
18425;SDS011;9340;48.756;9.226;2023-04-03T07:37:01;3.97;;;2.77;;
18425;SDS011;9340;48.756;9.226;2023-04-03T07:39:27;3.07;;;2.40;;
18425;SDS011;9340;48.756;9.226;2023-04-03T07:41:54;2.37;;;2.10;;
18425;SDS011;9340;48.756;9.226;2023-04-03T07:44:21;3.43;;;2.50;;
18425;SDS011;9340;48.756;9.226;2023-04-03T07:46:48;2.60;;;2.20;;
18425;SDS011;9340;48.756;9.226;2023-04-03T07:49:15;5.10;;;2.40;;
18425;SDS011;9340;48.756;9.226;2023-04-03T07:51:44;3.47;;;2.40;;
18425;SDS011;9340;48.756;9.226;2023-04-03T07:54:11;4.07;;;2.37;;
18425;SDS011;9340;48.756;9.226;2023-04-03T07:56:38;4.33;;;2.43;;
18425;SDS011;9340;48.756;9.226;2023-04-03T07:59:04;3.73;;;2.50;;
18425;SDS011;9340;48.756;9.226;2023-04-03T08:01:31;3.70;;;2.47;;
18425;SDS011;9340;48.756;9.226;2023-04-03T08:03:58;6.37;;;2.73;;
18425;SDS011;9340;48.756;9.226;2023-04-03T08:06:25;4.23;;;2.23;;
18425;SDS011;9340;48.756;9.226;2023-04-03T08:08:53;4.47;;;2.37;;
18425;SDS011;9340;48.756;9.226;2023-04-03T08:11:20;3.97;;;2.43;;
18425;SDS011;9340;48.756;9.226;2023-04-03T08:13:48;3.13;;;2.73;;
18425;SDS011;9340;48.756;9.226;2023-04-03T08:16:16;3.30;;;2.90;;
18425;SDS011;9340;48.756;9.226;2023-04-03T08:18:44;2.83;;;2.10;;
18425;SDS011;9340;48.756;9.226;2023-04-03T08:21:11;2.60;;;2.20;;
18425;SDS011;9340;48.756;9.226;2023-04-03T08:23:38;3.33;;;2.50;;
18425;SDS011;9340;48.756;9.226;2023-04-03T08:26:08;2.83;;;2.40;;
18425;SDS011;9340;48.756;9.226;2023-04-03T08:28:36;3.30;;;2.60;;
18425;SDS011;9340;48.756;9.226;2023-04-03T08:31:03;2.97;;;2.33;;
18425;SDS011;9340;48.756;9.226;2023-04-03T08:33:31;4.60;;;2.50;;
18425;SDS011;9340;48.756;9.226;2023-04-03T08:36:00;3.17;;;2.40;;
18425;SDS011;9340;48.756;9.226;2023-04-03T08:38:27;4.20;;;2.30;;
18425;SDS011;9340;48.756;9.226;2023-04-03T08:41:04;3.63;;;2.80;;
18425;SDS011;9340;48.756;9.226;2023-04-03T08:43:40;3.13;;;2.77;;
18425;SDS011;9340;48.756;9.226;2023-04-03T08:46:18;4.90;;;2.63;;
18425;SDS011;9340;48.756;9.226;2023-04-03T08:48:52;2.37;;;1.93;;
18425;SDS011;9340;48.756;9.226;2023-04-03T08:51:20;2.97;;;2.43;;
18425;SDS011;9340;48.756;9.226;2023-04-03T08:53:50;3.20;;;2.43;;
18425;SDS011;9340;48.756;9.226;2023-04-03T08:56:22;2.50;;;2.30;;
18425;SDS011;9340;48.756;9.226;2023-04-03T08:58:55;4.33;;;2.67;;
18425;SDS011;9340;48.756;9.226;2023-04-03T09:01:25;3.70;;;2.17;;
18425;SDS011;9340;48.756;9.226;2023-04-03T09:03:56;2.50;;;2.30;;
18425;SDS011;9340;48.756;9.226;2023-04-03T09:06:23;3.17;;;2.80;;
18425;SDS011;9340;48.756;9.226;2023-04-03T09:08:56;3.03;;;2.40;;
18425;SDS011;9340;48.756;9.226;2023-04-03T09:11:35;3.20;;;2.40;;
18425;SDS011;9340;48.756;9.226;2023-04-03T09:14:13;2.47;;;2.27;;
18425;SDS011;9340;48.756;9.226;2023-04-03T09:16:49;2.97;;;2.53;;
18425;SDS011;9340;48.756;9.226;2023-04-03T09:19:25;4.00;;;2.37;;
18425;SDS011;9340;48.756;9.226;2023-04-03T09:22:02;3.27;;;2.27;;
18425;SDS011;9340;48.756;9.226;2023-04-03T09:24:37;4.63;;;2.40;;
18425;SDS011;9340;48.756;9.226;2023-04-03T09:27:04;2.90;;;2.10;;
18425;SDS011;9340;48.756;9.226;2023-04-03T09:29:35;3.57;;;2.53;;
18425;SDS011;9340;48.756;9.226;2023-04-03T09:32:11;3.60;;;2.43;;
18425;SDS011;9340;48.756;9.226;2023-04-03T09:34:45;4.00;;;2.30;;
18425;SDS011;9340;48.756;9.226;2023-04-03T09:37:15;3.40;;;2.40;;
18425;SDS011;9340;48.756;9.226;2023-04-03T09:40:02;2.80;;;2.37;;
18425;SDS011;9340;48.756;9.226;2023-04-03T09:42:30;2.80;;;2.23;;
18425;SDS011;9340;48.756;9.226;2023-04-03T09:44:59;2.73;;;2.40;;
18425;SDS011;9340;48.756;9.226;2023-04-03T09:47:27;5.23;;;2.50;;
18425;SDS011;9340;48.756;9.226;2023-04-03T09:50:08;3.67;;;2.93;;
18425;SDS011;9340;48.756;9.226;2023-04-03T09:52:44;3.77;;;2.23;;
18425;SDS011;9340;48.756;9.226;2023-04-03T09:55:13;3.67;;;2.73;;
18425;SDS011;9340;48.756;9.226;2023-04-03T09:57:41;3.70;;;2.47;;
18425;SDS011;9340;48.756;9.226;2023-04-03T10:00:20;2.47;;;2.27;;
18425;SDS011;9340;48.756;9.226;2023-04-03T10:02:49;3.03;;;2.20;;
18425;SDS011;9340;48.756;9.226;2023-04-03T10:05:25;1.90;;;1.70;;
18425;SDS011;9340;48.756;9.226;2023-04-03T10:08:06;7.73;;;2.43;;
18425;SDS011;9340;48.756;9.226;2023-04-03T10:10:35;3.17;;;2.10;;
18425;SDS011;9340;48.756;9.226;2023-04-03T10:13:03;2.67;;;2.33;;
18425;SDS011;9340;48.756;9.226;2023-04-03T10:15:33;3.17;;;2.13;;
18425;SDS011;9340;48.756;9.226;2023-04-03T10:18:05;3.43;;;2.30;;
18425;SDS011;9340;48.756;9.226;2023-04-03T10:20:42;3.50;;;2.13;;
18425;SDS011;9340;48.756;9.226;2023-04-03T10:23:15;4.23;;;2.27;;
18425;SDS011;9340;48.756;9.226;2023-04-03T10:25:49;3.27;;;1.97;;
18425;SDS011;9340;48.756;9.226;2023-04-03T10:28:27;5.33;;;2.80;;
18425;SDS011;9340;48.756;9.226;2023-04-03T10:31:02;2.60;;;2.37;;
18425;SDS011;9340;48.756;9.226;2023-04-03T10:33:46;2.40;;;2.20;;
18425;SDS011;9340;48.756;9.226;2023-04-03T10:36:24;3.60;;;1.97;;
18425;SDS011;9340;48.756;9.226;2023-04-03T10:39:00;2.53;;;2.00;;
18425;SDS011;9340;48.756;9.226;2023-04-03T10:41:39;3.70;;;2.30;;
18425;SDS011;9340;48.756;9.226;2023-04-03T10:44:15;5.10;;;3.83;;
18425;SDS011;9340;48.756;9.226;2023-04-03T10:46:49;3.03;;;1.90;;
18425;SDS011;9340;48.756;9.226;2023-04-03T10:49:21;3.67;;;2.00;;
18425;SDS011;9340;48.756;9.226;2023-04-03T10:51:56;2.80;;;2.33;;
18425;SDS011;9340;48.756;9.226;2023-04-03T10:54:30;2.77;;;2.03;;
18425;SDS011;9340;48.756;9.226;2023-04-03T10:57:03;2.40;;;2.03;;
18425;SDS011;9340;48.756;9.226;2023-04-03T10:59:31;3.73;;;2.47;;
18425;SDS011;9340;48.756;9.226;2023-04-03T11:02:04;2.53;;;2.20;;
18425;SDS011;9340;48.756;9.226;2023-04-03T11:04:34;5.23;;;2.67;;
18425;SDS011;9340;48.756;9.226;2023-04-03T11:07:04;2.73;;;2.03;;
18425;SDS011;9340;48.756;9.226;2023-04-03T11:09:37;2.90;;;2.00;;
18425;SDS011;9340;48.756;9.226;2023-04-03T11:12:10;2.20;;;1.90;;
18425;SDS011;9340;48.756;9.226;2023-04-03T11:14:41;3.33;;;2.03;;
18425;SDS011;9340;48.756;9.226;2023-04-03T11:17:14;2.17;;;1.93;;
18425;SDS011;9340;48.756;9.226;2023-04-03T11:19:49;4.33;;;1.80;;
18425;SDS011;9340;48.756;9.226;2023-04-03T11:22:23;2.53;;;1.80;;
18425;SDS011;9340;48.756;9.226;2023-04-03T11:24:56;3.77;;;1.90;;
18425;SDS011;9340;48.756;9.226;2023-04-03T11:27:28;1.80;;;1.57;;
18425;SDS011;9340;48.756;9.226;2023-04-03T11:30:02;2.00;;;1.70;;
18425;SDS011;9340;48.756;9.226;2023-04-03T11:35:28;2.57;;;2.20;;
18425;SDS011;9340;48.756;9.226;2023-04-03T11:37:56;2.57;;;2.00;;
18425;SDS011;9340;48.756;9.226;2023-04-03T11:40:25;4.27;;;1.80;;
18425;SDS011;9340;48.756;9.226;2023-04-03T11:42:55;1.83;;;1.50;;
18425;SDS011;9340;48.756;9.226;2023-04-03T11:45:35;2.33;;;1.87;;
18425;SDS011;9340;48.756;9.226;2023-04-03T11:48:06;4.20;;;2.17;;
18425;SDS011;9340;48.756;9.226;2023-04-03T11:50:53;2.40;;;1.63;;
18425;SDS011;9340;48.756;9.226;2023-04-03T11:59:15;1.93;;;1.73;;
18425;SDS011;9340;48.756;9.226;2023-04-03T12:01:48;3.07;;;1.83;;
18425;SDS011;9340;48.756;9.226;2023-04-03T12:04:18;2.27;;;1.80;;
18425;SDS011;9340;48.756;9.226;2023-04-03T12:12:43;3.97;;;1.80;;
18425;SDS011;9340;48.756;9.226;2023-04-03T12:18:31;4.20;;;2.13;;
18425;SDS011;9340;48.756;9.226;2023-04-03T12:21:11;3.30;;;1.90;;
18425;SDS011;9340;48.756;9.226;2023-04-03T12:26:30;2.37;;;2.00;;
18425;SDS011;9340;48.756;9.226;2023-04-03T12:29:01;2.50;;;1.80;;
18425;SDS011;9340;48.756;9.226;2023-04-03T12:31:38;2.73;;;2.17;;
18425;SDS011;9340;48.756;9.226;2023-04-03T12:34:21;4.50;;;1.90;;
18425;SDS011;9340;48.756;9.226;2023-04-03T12:37:00;2.03;;;1.80;;
18425;SDS011;9340;48.756;9.226;2023-04-03T12:42:30;2.30;;;1.70;;
18425;SDS011;9340;48.756;9.226;2023-04-03T12:45:10;5.13;;;2.20;;
18425;SDS011;9340;48.756;9.226;2023-04-03T12:47:43;3.97;;;2.30;;
18425;SDS011;9340;48.756;9.226;2023-04-03T12:50:17;2.10;;;1.90;;
18425;SDS011;9340;48.756;9.226;2023-04-03T12:52:51;2.43;;;1.90;;
18425;SDS011;9340;48.756;9.226;2023-04-03T12:55:22;3.50;;;1.87;;
18425;SDS011;9340;48.756;9.226;2023-04-03T12:57:48;3.20;;;2.00;;
18425;SDS011;9340;48.756;9.226;2023-04-03T13:00:25;3.47;;;1.97;;
18425;SDS011;9340;48.756;9.226;2023-04-03T13:02:55;2.23;;;1.90;;
18425;SDS011;9340;48.756;9.226;2023-04-03T13:05:22;3.33;;;2.27;;
18425;SDS011;9340;48.756;9.226;2023-04-03T13:07:52;3.23;;;1.93;;
18425;SDS011;9340;48.756;9.226;2023-04-03T13:10:24;2.03;;;1.87;;
18425;SDS011;9340;48.756;9.226;2023-04-03T13:12:52;3.07;;;1.83;;
18425;SDS011;9340;48.756;9.226;2023-04-03T13:15:21;4.07;;;2.40;;
18425;SDS011;9340;48.756;9.226;2023-04-03T13:17:52;3.70;;;1.90;;
18425;SDS011;9340;48.756;9.226;2023-04-03T13:20:22;4.43;;;2.10;;
18425;SDS011;9340;48.756;9.226;2023-04-03T13:22:53;1.83;;;1.70;;
18425;SDS011;9340;48.756;9.226;2023-04-03T13:25:25;4.60;;;2.17;;
18425;SDS011;9340;48.756;9.226;2023-04-03T13:27:55;2.27;;;1.90;;
18425;SDS011;9340;48.756;9.226;2023-04-03T13:30:26;2.27;;;2.00;;
18425;SDS011;9340;48.756;9.226;2023-04-03T13:32:54;1.87;;;1.70;;
18425;SDS011;9340;48.756;9.226;2023-04-03T13:35:27;3.37;;;2.07;;
18425;SDS011;9340;48.756;9.226;2023-04-03T13:38:01;2.30;;;2.00;;
18425;SDS011;9340;48.756;9.226;2023-04-03T13:40:30;2.90;;;2.00;;
18425;SDS011;9340;48.756;9.226;2023-04-03T13:43:04;3.20;;;2.07;;
18425;SDS011;9340;48.756;9.226;2023-04-03T13:45:32;4.33;;;2.10;;
18425;SDS011;9340;48.756;9.226;2023-04-03T13:48:08;3.50;;;1.90;;
18425;SDS011;9340;48.756;9.226;2023-04-03T13:53:24;2.27;;;2.03;;
18425;SDS011;9340;48.756;9.226;2023-04-03T13:55:54;3.97;;;2.10;;
18425;SDS011;9340;48.756;9.226;2023-04-03T13:58:24;3.60;;;2.00;;
18425;SDS011;9340;48.756;9.226;2023-04-03T14:00:52;2.83;;;2.13;;
18425;SDS011;9340;48.756;9.226;2023-04-03T14:03:23;2.43;;;1.97;;
18425;SDS011;9340;48.756;9.226;2023-04-03T14:05:52;3.07;;;2.20;;
18425;SDS011;9340;48.756;9.226;2023-04-03T14:08:19;2.60;;;2.33;;
18425;SDS011;9340;48.756;9.226;2023-04-03T14:10:47;2.97;;;2.13;;
18425;SDS011;9340;48.756;9.226;2023-04-03T14:13:15;3.00;;;2.00;;
18425;SDS011;9340;48.756;9.226;2023-04-03T14:15:43;2.53;;;2.13;;
18425;SDS011;9340;48.756;9.226;2023-04-03T14:18:11;2.30;;;2.10;;
18425;SDS011;9340;48.756;9.226;2023-04-03T14:20:39;2.60;;;2.10;;
18425;SDS011;9340;48.756;9.226;2023-04-03T14:23:06;2.57;;;2.30;;
18425;SDS011;9340;48.756;9.226;2023-04-03T14:25:33;3.17;;;2.17;;
18425;SDS011;9340;48.756;9.226;2023-04-03T14:28:07;4.17;;;2.30;;
18425;SDS011;9340;48.756;9.226;2023-04-03T14:30:40;2.10;;;1.90;;
18425;SDS011;9340;48.756;9.226;2023-04-03T14:33:09;3.73;;;1.97;;
18425;SDS011;9340;48.756;9.226;2023-04-03T14:35:38;2.33;;;2.10;;
18425;SDS011;9340;48.756;9.226;2023-04-03T14:38:05;3.70;;;2.30;;
18425;SDS011;9340;48.756;9.226;2023-04-03T14:40:45;2.47;;;2.13;;
18425;SDS011;9340;48.756;9.226;2023-04-03T14:43:13;2.00;;;1.73;;
18425;SDS011;9340;48.756;9.226;2023-04-03T14:45:41;2.63;;;2.10;;
18425;SDS011;9340;48.756;9.226;2023-04-03T14:48:09;3.80;;;2.27;;
18425;SDS011;9340;48.756;9.226;2023-04-03T14:50:39;2.87;;;2.30;;
18425;SDS011;9340;48.756;9.226;2023-04-03T14:53:05;3.70;;;2.10;;
18425;SDS011;9340;48.756;9.226;2023-04-03T14:55:32;3.80;;;2.67;;
18425;SDS011;9340;48.756;9.226;2023-04-03T14:58:00;2.20;;;2.00;;
18425;SDS011;9340;48.756;9.226;2023-04-03T15:00:29;2.37;;;2.17;;
18425;SDS011;9340;48.756;9.226;2023-04-03T15:02:55;4.03;;;2.53;;
18425;SDS011;9340;48.756;9.226;2023-04-03T15:05:22;3.97;;;2.47;;
18425;SDS011;9340;48.756;9.226;2023-04-03T15:07:49;4.07;;;3.40;;
18425;SDS011;9340;48.756;9.226;2023-04-03T15:10:20;3.47;;;2.30;;
18425;SDS011;9340;48.756;9.226;2023-04-03T15:12:48;4.47;;;2.30;;
18425;SDS011;9340;48.756;9.226;2023-04-03T15:15:16;2.77;;;2.37;;
18425;SDS011;9340;48.756;9.226;2023-04-03T15:17:46;2.73;;;2.00;;
18425;SDS011;9340;48.756;9.226;2023-04-03T15:20:24;4.03;;;2.37;;
18425;SDS011;9340;48.756;9.226;2023-04-03T15:22:52;3.33;;;2.90;;
18425;SDS011;9340;48.756;9.226;2023-04-03T15:25:21;3.63;;;2.27;;
18425;SDS011;9340;48.756;9.226;2023-04-03T15:27:47;4.23;;;2.30;;
18425;SDS011;9340;48.756;9.226;2023-04-03T15:30:15;2.63;;;1.93;;
18425;SDS011;9340;48.756;9.226;2023-04-03T15:32:45;3.10;;;2.20;;
18425;SDS011;9340;48.756;9.226;2023-04-03T15:35:12;4.27;;;2.30;;
18425;SDS011;9340;48.756;9.226;2023-04-03T15:37:39;3.53;;;2.47;;
18425;SDS011;9340;48.756;9.226;2023-04-03T15:40:06;2.27;;;2.07;;
18425;SDS011;9340;48.756;9.226;2023-04-03T15:42:34;2.87;;;2.03;;